createdAt,value
2018-09-01T00:00:09.832Z,0
2018-09-01T00:01:09.590Z,0
2018-09-01T00:02:09.567Z,0
2018-09-01T00:03:10.084Z,0
2018-09-01T00:04:09.823Z,0
2018-09-01T00:05:10.277Z,0
2018-09-01T00:06:09.847Z,0
2018-09-01T00:07:09.824Z,0
2018-09-01T00:08:09.324Z,0
2018-09-01T00:09:09.829Z,0
2018-09-01T00:10:09.849Z,0
2018-09-01T00:11:10.228Z,0
2018-09-01T00:12:09.821Z,0
2018-09-01T00:13:09.584Z,0
2018-09-01T00:14:09.615Z,0
2018-09-01T00:15:09.823Z,0
2018-09-01T00:16:09.335Z,0
2018-09-01T00:17:09.857Z,0
2018-09-01T00:18:09.839Z,0
2018-09-01T00:19:09.586Z,0
2018-09-01T00:20:09.603Z,0
2018-09-01T00:21:09.834Z,0
2018-09-01T00:22:09.823Z,0
2018-09-01T00:23:10.070Z,0
2018-09-01T00:24:09.573Z,0
2018-09-01T00:25:09.901Z,0
2018-09-01T00:26:09.560Z,0
2018-09-01T00:27:10.068Z,0
2018-09-01T00:28:10.080Z,0
2018-09-01T00:29:10.071Z,0
2018-09-01T00:30:10.136Z,0
2018-09-01T00:31:09.816Z,0
2018-09-01T00:32:09.816Z,0
2018-09-01T00:33:09.821Z,0
2018-09-01T00:34:09.840Z,0
2018-09-01T00:35:09.860Z,0
2018-09-01T00:36:10.109Z,0
2018-09-01T00:37:09.868Z,0
2018-09-01T00:38:09.816Z,0
2018-09-01T00:39:09.542Z,0
2018-09-01T00:40:09.818Z,0
2018-09-01T00:41:09.533Z,0
2018-09-01T00:42:09.817Z,0
2018-09-01T00:43:09.796Z,0
2018-09-01T00:44:10.053Z,0
2018-09-01T00:45:09.551Z,0
2018-09-01T00:46:09.816Z,0
2018-09-01T00:47:10.090Z,0
2018-09-01T00:48:09.586Z,0
2018-09-01T00:49:09.801Z,0
2018-09-01T00:50:09.789Z,0
2018-09-01T00:51:09.285Z,0
2018-09-01T00:52:09.820Z,0
2018-09-01T00:53:10.055Z,0
2018-09-01T00:54:10.067Z,0
2018-09-01T00:55:09.832Z,0
2018-09-01T00:56:09.548Z,0
2018-09-01T00:57:10.590Z,0
2018-09-01T00:58:10.060Z,0
2018-09-01T00:59:09.531Z,0
2018-09-01T01:00:09.532Z,0
2018-09-01T01:01:09.796Z,0
2018-09-01T01:02:09.794Z,0
2018-09-01T01:03:09.796Z,0
2018-09-01T01:04:09.537Z,0
2018-09-01T01:05:09.523Z,0
2018-09-01T01:06:09.534Z,0
2018-09-01T01:07:09.790Z,0
2018-09-01T01:08:09.778Z,0
2018-09-01T01:09:10.047Z,0
2018-09-01T01:10:09.523Z,0
2018-09-01T01:11:09.782Z,0
2018-09-01T01:12:09.523Z,0
2018-09-01T01:13:10.056Z,0
2018-09-01T01:14:09.519Z,0
2018-09-01T01:15:10.037Z,0
2018-09-01T01:16:10.045Z,0
2018-09-01T01:17:09.780Z,0
2018-09-01T01:18:09.778Z,0
2018-09-01T01:19:09.524Z,0
2018-09-01T01:20:09.800Z,0
2018-09-01T01:21:10.059Z,0
2018-09-01T01:22:10.073Z,0
2018-09-01T01:23:10.087Z,0
2018-09-01T01:24:09.789Z,0
2018-09-01T01:25:09.838Z,0
2018-09-01T01:26:10.079Z,0
2018-09-01T01:27:09.569Z,0
2018-09-01T01:28:09.783Z,0
2018-09-01T01:29:10.028Z,0
2018-09-01T01:30:09.416Z,0
2018-09-01T01:31:09.765Z,0
2018-09-01T01:32:09.524Z,0
2018-09-01T01:33:10.886Z,0
2018-09-01T01:34:10.027Z,0
2018-09-01T01:35:10.078Z,0
2018-09-01T01:36:09.525Z,0
2018-09-01T01:37:09.526Z,0
2018-09-01T01:38:09.764Z,0
2018-09-01T01:39:09.767Z,0
2018-09-01T01:40:09.913Z,0
2018-09-01T01:41:09.767Z,0
2018-09-01T01:42:09.782Z,0
2018-09-01T01:43:09.521Z,0
2018-09-01T01:44:09.245Z,0
2018-09-01T01:45:09.712Z,0
2018-09-01T01:46:09.521Z,0
2018-09-01T01:47:09.508Z,0
2018-09-01T01:48:10.031Z,0
2018-09-01T01:49:09.544Z,0
2018-09-01T01:50:09.886Z,0
2018-09-01T01:51:09.515Z,0
2018-09-01T01:52:09.495Z,0
2018-09-01T01:53:10.006Z,0
2018-09-01T01:54:09.803Z,0
2018-09-01T01:55:09.718Z,0
2018-09-01T01:56:09.766Z,0
2018-09-01T01:57:09.486Z,0
2018-09-01T01:58:09.496Z,0
2018-09-01T01:59:09.742Z,0
2018-09-01T02:00:10.041Z,0
2018-09-01T02:01:09.494Z,0
2018-09-01T02:02:09.489Z,0
2018-09-01T02:03:09.643Z,0
2018-09-01T02:04:09.749Z,0
2018-09-01T02:05:09.815Z,0
2018-09-01T02:06:09.745Z,0
2018-09-01T02:07:09.753Z,0
2018-09-01T02:08:09.744Z,0
2018-09-01T02:09:09.741Z,0
2018-09-01T02:10:09.907Z,0
2018-09-01T02:11:09.985Z,0
2018-09-01T02:12:09.498Z,0
2018-09-01T02:13:09.482Z,0
2018-09-01T02:14:09.741Z,0
2018-09-01T02:15:09.554Z,0
2018-09-01T02:16:10.041Z,0
2018-09-01T02:17:10.001Z,0
2018-09-01T02:18:09.765Z,0
2018-09-01T02:19:09.731Z,0
2018-09-01T02:20:09.904Z,0
2018-09-01T02:21:09.736Z,0
2018-09-01T02:22:09.724Z,0
2018-09-01T02:23:09.484Z,0
2018-09-01T02:24:09.734Z,0
2018-09-01T02:25:09.676Z,0
2018-09-01T02:26:09.719Z,0
2018-09-01T02:27:09.976Z,0
2018-09-01T02:28:09.770Z,0
2018-09-01T02:29:09.791Z,0
2018-09-01T02:30:09.637Z,0
2018-09-01T02:31:09.730Z,0
2018-09-01T02:32:09.716Z,0
2018-09-01T02:33:12.629Z,0
2018-09-01T02:34:09.712Z,0
2018-09-01T02:35:09.547Z,0
2018-09-01T02:36:09.972Z,0
2018-09-01T02:37:09.988Z,0
2018-09-01T02:38:10.000Z,0
2018-09-01T02:39:09.979Z,0
2018-09-01T02:40:10.104Z,0
2018-09-01T02:41:09.734Z,0
2018-09-01T02:42:09.212Z,0
2018-09-01T02:43:09.710Z,0
2018-09-01T02:44:09.707Z,0
2018-09-01T02:45:10.122Z,0
2018-09-01T02:46:09.961Z,0
2018-09-01T02:47:09.182Z,0
2018-09-01T02:48:09.694Z,0
2018-09-01T02:49:09.959Z,0
2018-09-01T02:50:09.756Z,0
2018-09-01T02:51:09.455Z,0
2018-09-01T02:52:09.707Z,0
2018-09-01T02:53:09.705Z,0
2018-09-01T02:54:09.717Z,0
2018-09-01T02:55:10.162Z,0
2018-09-01T02:56:09.706Z,0
2018-09-01T02:57:09.964Z,0
2018-09-01T02:58:09.701Z,0
2018-09-01T02:59:09.678Z,0
2018-09-01T03:00:09.632Z,0
2018-09-01T03:01:09.962Z,0
2018-09-01T03:02:09.180Z,0
2018-09-01T03:03:09.937Z,0
2018-09-01T03:04:09.688Z,0
2018-09-01T03:05:10.041Z,0
2018-09-01T03:06:09.169Z,0
2018-09-01T03:07:09.958Z,0
2018-09-01T03:08:09.673Z,0
2018-09-01T03:09:09.415Z,0
2018-09-01T03:10:09.294Z,0
2018-09-01T03:11:09.408Z,0
2018-09-01T03:12:09.932Z,0
2018-09-01T03:13:09.675Z,0
2018-09-01T03:14:09.916Z,0
2018-09-01T03:15:10.065Z,0
2018-09-01T03:16:09.906Z,0
2018-09-01T03:17:09.929Z,0
2018-09-01T03:18:09.425Z,0
2018-09-01T03:19:09.406Z,0
2018-09-01T03:20:09.249Z,0
2018-09-01T03:21:09.388Z,0
2018-09-01T03:22:09.667Z,0
2018-09-01T03:23:09.392Z,0
2018-09-01T03:24:09.908Z,0
2018-09-01T03:25:09.721Z,0
2018-09-01T03:26:09.915Z,0
2018-09-01T03:27:09.656Z,0
2018-09-01T03:28:09.418Z,0
2018-09-01T03:29:09.378Z,0
2018-09-01T03:30:09.793Z,0
2018-09-01T03:31:09.919Z,0
2018-09-01T03:32:09.918Z,0
2018-09-01T03:33:09.666Z,0
2018-09-01T03:34:09.378Z,0
2018-09-01T03:35:09.457Z,0
2018-09-01T03:36:09.387Z,0
2018-09-01T03:37:09.640Z,0
2018-09-01T03:38:09.941Z,0
2018-09-01T03:39:09.398Z,0
2018-09-01T03:40:09.793Z,0
2018-09-01T03:41:09.890Z,0
2018-09-01T03:42:09.385Z,0
2018-09-01T03:43:09.379Z,0
2018-09-01T03:44:09.392Z,0
2018-09-01T03:45:09.932Z,0
2018-09-01T03:46:09.891Z,0
2018-09-01T03:47:09.366Z,0
2018-09-01T03:48:09.865Z,0
2018-09-01T03:49:09.608Z,0
2018-09-01T03:50:09.789Z,0
2018-09-01T03:51:09.915Z,0
2018-09-01T03:52:09.374Z,0
2018-09-01T03:53:09.858Z,0
2018-09-01T03:54:09.347Z,0
2018-09-01T03:55:09.984Z,0
2018-09-01T03:56:09.597Z,0
2018-09-01T03:57:09.342Z,0
2018-09-01T03:58:09.603Z,0
2018-09-01T03:59:09.604Z,0
2018-09-01T04:00:09.444Z,0
2018-09-01T04:01:09.337Z,0
2018-09-01T04:02:09.855Z,0
2018-09-01T04:03:09.606Z,0
2018-09-01T04:04:10.135Z,0
2018-09-01T04:05:09.392Z,0
2018-09-01T04:06:09.586Z,0
2018-09-01T04:07:09.846Z,0
2018-09-01T04:08:09.665Z,0
2018-09-01T04:09:10.926Z,0
2018-09-01T04:10:09.849Z,0
2018-09-01T04:11:09.349Z,4
2018-09-01T04:12:09.833Z,4
2018-09-01T04:13:09.315Z,4
2018-09-01T04:14:09.566Z,0
2018-09-01T04:15:09.364Z,4
2018-09-01T04:16:09.336Z,4
2018-09-01T04:17:09.573Z,4
2018-09-01T04:18:09.319Z,8
2018-09-01T04:19:09.832Z,8
2018-09-01T04:20:09.579Z,8
2018-09-01T04:21:09.575Z,8
2018-09-01T04:22:09.303Z,12
2018-09-01T04:23:09.582Z,16
2018-09-01T04:24:09.298Z,20
2018-09-01T04:25:09.327Z,24
2018-09-01T04:26:09.578Z,24
2018-09-01T04:27:09.557Z,28
2018-09-01T04:28:09.548Z,36
2018-09-01T04:29:09.568Z,40
2018-09-01T04:30:09.343Z,44
2018-09-01T04:31:09.572Z,52
2018-09-01T04:32:09.870Z,60
2018-09-01T04:33:09.562Z,72
2018-09-01T04:34:09.536Z,80
2018-09-01T04:35:09.685Z,88
2018-09-01T04:36:09.261Z,96
2018-09-01T04:37:09.779Z,104
2018-09-01T04:38:09.523Z,120
2018-09-01T04:39:09.578Z,132
2018-09-01T04:40:09.482Z,144
2018-09-01T04:41:09.304Z,164
2018-09-01T04:42:09.268Z,180
2018-09-01T04:43:09.785Z,204
2018-09-01T04:44:09.533Z,224
2018-09-01T04:45:09.609Z,244
2018-09-01T04:46:09.267Z,268
2018-09-01T04:47:10.290Z,296
2018-09-01T04:48:09.789Z,320
2018-09-01T04:49:09.790Z,348
2018-09-01T04:50:09.352Z,376
2018-09-01T04:51:09.523Z,408
2018-09-01T04:52:09.520Z,440
2018-09-01T04:53:09.530Z,476
2018-09-01T04:54:09.266Z,516
2018-09-01T04:55:09.536Z,548
2018-09-01T04:56:09.237Z,588
2018-09-01T04:57:09.780Z,628
2018-09-01T04:58:09.247Z,672
2018-09-01T04:59:09.776Z,720
2018-09-01T05:00:09.571Z,764
2018-09-01T05:01:10.139Z,800
2018-09-01T05:02:09.565Z,844
2018-09-01T05:03:09.256Z,892
2018-09-01T05:04:11.958Z,940
2018-09-01T05:05:09.236Z,988
2018-09-01T05:06:09.490Z,1044
2018-09-01T05:07:09.487Z,1100
2018-09-01T05:08:09.479Z,1164
2018-09-01T05:09:09.227Z,1232
2018-09-01T05:10:09.354Z,1300
2018-09-01T05:11:09.467Z,1364
2018-09-01T05:12:09.492Z,1424
2018-09-01T05:13:09.489Z,1488
2018-09-01T05:14:09.486Z,1552
2018-09-01T05:15:09.324Z,1616
2018-09-01T05:16:09.723Z,1672
2018-09-01T05:17:09.730Z,1716
2018-09-01T05:18:09.484Z,1748
2018-09-01T05:19:08.964Z,1752
2018-09-01T05:20:09.814Z,1748
2018-09-01T05:21:09.454Z,1760
2018-09-01T05:22:09.205Z,1792
2018-09-01T05:23:09.464Z,1820
2018-09-01T05:24:09.650Z,1852
2018-09-01T05:25:09.517Z,1888
2018-09-01T05:26:09.703Z,1920
2018-09-01T05:27:09.200Z,1948
2018-09-01T05:28:09.713Z,1968
2018-09-01T05:29:09.449Z,1988
2018-09-01T05:30:09.518Z,1996
2018-09-01T05:31:09.244Z,2000
2018-09-01T05:32:09.457Z,2004
2018-09-01T05:33:09.472Z,1992
2018-09-01T05:34:09.470Z,1976
2018-09-01T05:35:09.796Z,1968
2018-09-01T05:36:09.210Z,1956
2018-09-01T05:37:09.442Z,1952
2018-09-01T05:38:09.712Z,1948
2018-09-01T05:39:09.448Z,1944
2018-09-01T05:40:09.347Z,1940
2018-09-01T05:41:09.188Z,1940
2018-09-01T05:42:09.187Z,1940
2018-09-01T05:43:09.173Z,1936
2018-09-01T05:44:09.690Z,1940
2018-09-01T05:45:09.276Z,1940
2018-09-01T05:46:08.926Z,1944
2018-09-01T05:47:08.921Z,1944
2018-09-01T05:48:08.930Z,1936
2018-09-01T05:49:09.427Z,1928
2018-09-01T05:50:09.731Z,1924
2018-09-01T05:51:09.174Z,1924
2018-09-01T05:52:09.158Z,1940
2018-09-01T05:53:09.414Z,1960
2018-09-01T05:54:09.687Z,1972
2018-09-01T05:55:09.707Z,1972
2018-09-01T05:56:09.156Z,1976
2018-09-01T05:57:09.673Z,1972
2018-09-01T05:58:09.418Z,1960
2018-09-01T05:59:09.420Z,1952
2018-09-01T06:00:09.533Z,1944
2018-09-01T06:01:09.164Z,1948
2018-09-01T06:02:09.429Z,1948
2018-09-01T06:03:09.675Z,1968
2018-09-01T06:04:09.154Z,1996
2018-09-01T06:05:10.722Z,2032
2018-09-01T06:06:09.769Z,2092
2018-09-01T06:07:09.153Z,2144
2018-09-01T06:08:09.406Z,2184
2018-09-01T06:09:09.399Z,2236
2018-09-01T06:10:09.232Z,2312
2018-09-01T06:11:09.148Z,2400
2018-09-01T06:12:09.165Z,2508
2018-09-01T06:13:09.443Z,2616
2018-09-01T06:14:09.383Z,2712
2018-09-01T06:15:09.456Z,2824
2018-09-01T06:16:09.137Z,2952
2018-09-01T06:17:09.642Z,3024
2018-09-01T06:18:09.595Z,3060
2018-09-01T06:19:09.868Z,3068
2018-09-01T06:20:09.309Z,3096
2018-09-01T06:21:09.391Z,3140
2018-09-01T06:22:09.112Z,3148
2018-09-01T06:23:09.381Z,3124
2018-09-01T06:24:09.605Z,3100
2018-09-01T06:25:09.187Z,3064
2018-09-01T06:26:09.639Z,3028
2018-09-01T06:27:09.372Z,2984
2018-09-01T06:28:09.136Z,2960
2018-09-01T06:29:09.646Z,2952
2018-09-01T06:30:09.610Z,2948
2018-09-01T06:31:09.657Z,2956
2018-09-01T06:32:09.120Z,2980
2018-09-01T06:33:09.331Z,3000
2018-09-01T06:34:09.117Z,3016
2018-09-01T06:35:11.125Z,3040
2018-09-01T06:36:09.109Z,3076
2018-09-01T06:37:09.109Z,3116
2018-09-01T06:38:09.620Z,3172
2018-09-01T06:39:09.366Z,3236
2018-09-01T06:40:09.620Z,3308
2018-09-01T06:41:08.835Z,3356
2018-09-01T06:42:09.636Z,3400
2018-09-01T06:43:09.989Z,3416
2018-09-01T06:44:09.170Z,3424
2018-09-01T06:45:09.622Z,3440
2018-09-01T06:46:09.102Z,3472
2018-09-01T06:47:09.409Z,3512
2018-09-01T06:48:09.661Z,3592
2018-09-01T06:49:09.116Z,3660
2018-09-01T06:50:09.293Z,3740
2018-09-01T06:51:09.097Z,3776
2018-09-01T06:52:08.848Z,3824
2018-09-01T06:53:09.605Z,3872
2018-09-01T06:54:09.088Z,3936
2018-09-01T06:55:09.136Z,4012
2018-09-01T06:56:09.359Z,4112
2018-09-01T06:57:09.616Z,4208
2018-09-01T06:58:09.093Z,4296
2018-09-01T06:59:09.345Z,4412
2018-09-01T07:00:09.417Z,4532
2018-09-01T07:01:09.382Z,4688
2018-09-01T07:02:09.079Z,4832
2018-09-01T07:03:09.081Z,4944
2018-09-01T07:04:09.347Z,5032
2018-09-01T07:05:09.485Z,5096
2018-09-01T07:06:09.329Z,5132
2018-09-01T07:07:09.598Z,5172
2018-09-01T07:08:09.595Z,5212
2018-09-01T07:09:09.081Z,5248
2018-09-01T07:10:09.343Z,5260
2018-09-01T07:11:09.348Z,5252
2018-09-01T07:12:09.333Z,5240
2018-09-01T07:13:09.337Z,5248
2018-09-01T07:14:09.087Z,5284
2018-09-01T07:15:09.134Z,5332
2018-09-01T07:16:09.316Z,5360
2018-09-01T07:17:09.613Z,5392
2018-09-01T07:18:09.327Z,5444
2018-09-01T07:19:09.328Z,5512
2018-09-01T07:20:09.367Z,5576
2018-09-01T07:21:09.343Z,5632
2018-09-01T07:22:08.810Z,5680
2018-09-01T07:23:09.315Z,5712
2018-09-01T07:24:09.329Z,5736
2018-09-01T07:25:09.103Z,5756
2018-09-01T07:26:09.078Z,5780
2018-09-01T07:27:09.574Z,5832
2018-09-01T07:28:09.320Z,5876
2018-09-01T07:29:09.073Z,5936
2018-09-01T07:30:09.663Z,6000
2018-09-01T07:31:11.077Z,6076
2018-09-01T07:32:09.318Z,6160
2018-09-01T07:33:09.573Z,6280
2018-09-01T07:34:09.057Z,6436
2018-09-01T07:35:09.384Z,6676
2018-09-01T07:36:10.371Z,7468
2018-09-01T07:37:09.591Z,7344
2018-09-01T07:38:09.583Z,7420
2018-09-01T07:39:09.316Z,7528
2018-09-01T07:40:09.057Z,7736
2018-09-01T07:41:09.341Z,8076
2018-09-01T07:42:09.074Z,8508
2018-09-01T07:43:09.427Z,8940
2018-09-01T07:44:09.318Z,9008
2018-09-01T07:45:08.838Z,9536
2018-09-01T07:46:08.800Z,9288
2018-09-01T07:47:08.940Z,9496
2018-09-01T07:48:09.055Z,10104
2018-09-01T07:49:09.604Z,9880
2018-09-01T07:50:08.920Z,9760
2018-09-01T07:51:09.057Z,9584
2018-09-01T07:52:08.802Z,9500
2018-09-01T07:53:09.106Z,9488
2018-09-01T07:54:09.316Z,9324
2018-09-01T07:55:09.615Z,9772
2018-09-01T07:56:09.819Z,9132
2018-09-01T07:57:09.327Z,9096
2018-09-01T07:58:09.082Z,9152
2018-09-01T07:59:09.076Z,10428
2018-09-01T08:00:09.395Z,13568
2018-09-01T08:01:09.082Z,11040
2018-09-01T08:02:09.354Z,13068
2018-09-01T08:03:09.368Z,12460
2018-09-01T08:04:09.084Z,12312
2018-09-01T08:05:09.412Z,12060
2018-09-01T08:06:10.454Z,10180
2018-09-01T08:07:09.101Z,8368
2018-09-01T08:08:09.384Z,7592
2018-09-01T08:09:09.612Z,7444
2018-09-01T08:10:09.410Z,7092
2018-09-01T08:11:09.368Z,6776
2018-09-01T08:12:09.115Z,6540
2018-09-01T08:13:09.655Z,6452
2018-09-01T08:14:10.585Z,6240
2018-09-01T08:15:09.215Z,6032
2018-09-01T08:16:09.122Z,5864
2018-09-01T08:17:09.117Z,5804
2018-09-01T08:18:09.127Z,5800
2018-09-01T08:19:08.889Z,5896
2018-09-01T08:20:08.949Z,6048
2018-09-01T08:21:09.662Z,6252
2018-09-01T08:22:09.410Z,6452
2018-09-01T08:23:09.408Z,6724
2018-09-01T08:24:09.413Z,6992
2018-09-01T08:25:09.754Z,7284
2018-09-01T08:26:10.195Z,7400
2018-09-01T08:27:09.661Z,7756
2018-09-01T08:28:09.409Z,8388
2018-09-01T08:29:09.144Z,8820
2018-09-01T08:30:09.414Z,10068
2018-09-01T08:31:09.152Z,9800
2018-09-01T08:32:09.153Z,9464
2018-09-01T08:33:09.669Z,9528
2018-09-01T08:34:09.661Z,9720
2018-09-01T08:35:09.504Z,9696
2018-09-01T08:36:09.586Z,9196
2018-09-01T08:37:09.411Z,9592
2018-09-01T08:38:09.681Z,9140
2018-09-01T08:39:09.424Z,9720
2018-09-01T08:40:09.279Z,9412
2018-09-01T08:41:09.693Z,10432
2018-09-01T08:42:09.187Z,10012
2018-09-01T08:43:09.433Z,7728
2018-09-01T08:44:09.452Z,7912
2018-09-01T08:45:09.871Z,8204
2018-09-01T08:46:09.737Z,7356
2018-09-01T08:47:09.440Z,7408
2018-09-01T08:48:09.195Z,7008
2018-09-01T08:49:09.212Z,7052
2018-09-01T08:50:09.598Z,6452
2018-09-01T08:51:09.203Z,6472
2018-09-01T08:52:09.491Z,6712
2018-09-01T08:53:09.475Z,6900
2018-09-01T08:54:09.600Z,6836
2018-09-01T08:55:09.838Z,7272
2018-09-01T08:56:08.976Z,7396
2018-09-01T08:57:08.986Z,6928
2018-09-01T08:58:09.233Z,7040
2018-09-01T08:59:09.529Z,6996
2018-09-01T09:00:09.618Z,6632
2018-09-01T09:01:09.485Z,6404
2018-09-01T09:02:09.233Z,6296
2018-09-01T09:03:09.493Z,6244
2018-09-01T09:04:09.519Z,6324
2018-09-01T09:05:09.645Z,6556
2018-09-01T09:06:10.294Z,6668
2018-09-01T09:07:09.482Z,6688
2018-09-01T09:08:09.239Z,6968
2018-09-01T09:09:09.488Z,7516
2018-09-01T09:10:09.451Z,7476
2018-09-01T09:11:09.250Z,7704
2018-09-01T09:12:09.783Z,8132
2018-09-01T09:13:08.988Z,8164
2018-09-01T09:14:09.510Z,8188
2018-09-01T09:15:09.577Z,8748
2018-09-01T09:16:09.241Z,9548
2018-09-01T09:17:09.234Z,9448
2018-09-01T09:18:09.261Z,11120
2018-09-01T09:19:09.259Z,10920
2018-09-01T09:20:09.703Z,11508
2018-09-01T09:21:09.575Z,9208
2018-09-01T09:22:09.543Z,10352
2018-09-01T09:23:09.808Z,9396
2018-09-01T09:24:09.286Z,9204
2018-09-01T09:25:09.621Z,9372
2018-09-01T09:26:09.781Z,9248
2018-09-01T09:27:09.276Z,9804
2018-09-01T09:28:09.010Z,9304
2018-09-01T09:29:09.037Z,10720
2018-09-01T09:30:09.809Z,9704
2018-09-01T09:31:09.547Z,9700
2018-09-01T09:32:09.277Z,9888
2018-09-01T09:33:09.580Z,10228
2018-09-01T09:34:09.289Z,11300
2018-09-01T09:35:09.727Z,8976
2018-09-01T09:36:09.028Z,8560
2018-09-01T09:37:09.546Z,8984
2018-09-01T09:38:09.301Z,8988
2018-09-01T09:39:09.301Z,8208
2018-09-01T09:40:09.842Z,8696
2018-09-01T09:41:09.851Z,9444
2018-09-01T09:42:09.621Z,8088
2018-09-01T09:43:09.557Z,8100
2018-09-01T09:44:09.301Z,8892
2018-09-01T09:45:09.371Z,9032
2018-09-01T09:46:09.345Z,9020
2018-09-01T09:47:09.854Z,8796
2018-09-01T09:48:09.584Z,8512
2018-09-01T09:49:09.597Z,7944
2018-09-01T09:50:09.714Z,7936
2018-09-01T09:51:09.845Z,7480
2018-09-01T09:52:09.319Z,7424
2018-09-01T09:53:09.905Z,6988
2018-09-01T09:54:09.328Z,7000
2018-09-01T09:55:10.058Z,7108
2018-09-01T09:56:09.856Z,7116
2018-09-01T09:57:09.868Z,7012
2018-09-01T09:58:09.388Z,7240
2018-09-01T09:59:09.612Z,6616
2018-09-01T10:00:10.146Z,6472
2018-09-01T10:01:09.541Z,6384
2018-09-01T10:02:09.625Z,6548
2018-09-01T10:03:09.361Z,6792
2018-09-01T10:04:09.615Z,7452
2018-09-01T10:05:09.637Z,8168
2018-09-01T10:06:09.634Z,8004
2018-09-01T10:07:09.611Z,8112
2018-09-01T10:08:09.362Z,7800
2018-09-01T10:09:09.371Z,8616
2018-09-01T10:10:09.302Z,9288
2018-09-01T10:11:10.223Z,8608
2018-09-01T10:12:09.643Z,8488
2018-09-01T10:13:09.373Z,8120
2018-09-01T10:14:09.121Z,8232
2018-09-01T10:15:09.713Z,8440
2018-09-01T10:16:09.637Z,9176
2018-09-01T10:17:09.436Z,8940
2018-09-01T10:18:09.638Z,8716
2018-09-01T10:19:09.380Z,8844
2018-09-01T10:20:09.811Z,9032
2018-09-01T10:21:09.665Z,9584
2018-09-01T10:22:09.384Z,9788
2018-09-01T10:23:09.913Z,9576
2018-09-01T10:24:09.139Z,9288
2018-09-01T10:25:09.310Z,8996
2018-09-01T10:26:09.668Z,8860
2018-09-01T10:27:10.066Z,9140
2018-09-01T10:28:09.674Z,9328
2018-09-01T10:29:09.417Z,9344
2018-09-01T10:30:09.503Z,9376
2018-09-01T10:31:09.407Z,8700
2018-09-01T10:32:09.408Z,8428
2018-09-01T10:33:09.432Z,9176
2018-09-01T10:34:09.752Z,9076
2018-09-01T10:35:09.528Z,10120
2018-09-01T10:36:09.463Z,10104
2018-09-01T10:37:09.990Z,8224
2018-09-01T10:38:09.951Z,8508
2018-09-01T10:39:09.424Z,8896
2018-09-01T10:40:09.822Z,10172
2018-09-01T10:41:09.238Z,10688
2018-09-01T10:42:09.727Z,10660
2018-09-01T10:43:09.447Z,9728
2018-09-01T10:44:09.700Z,7020
2018-09-01T10:45:09.557Z,6544
2018-09-01T10:46:09.747Z,6384
2018-09-01T10:47:09.441Z,6348
2018-09-01T10:48:09.880Z,6468
2018-09-01T10:49:09.713Z,6728
2018-09-01T10:50:09.624Z,7168
2018-09-01T10:51:09.733Z,7528
2018-09-01T10:52:09.716Z,7644
2018-09-01T10:53:09.458Z,7608
2018-09-01T10:54:09.464Z,8568
2018-09-01T10:55:09.740Z,6940
2018-09-01T10:56:09.749Z,6780
2018-09-01T10:57:09.740Z,6652
2018-09-01T10:58:09.735Z,6636
2018-09-01T10:59:10.912Z,7428
2018-09-01T11:00:09.664Z,6748
2018-09-01T11:01:09.495Z,6904
2018-09-01T11:02:09.484Z,7080
2018-09-01T11:03:09.567Z,8060
2018-09-01T11:04:09.749Z,7436
2018-09-01T11:05:09.733Z,7116
2018-09-01T11:06:10.000Z,7124
2018-09-01T11:07:10.574Z,7184
2018-09-01T11:08:09.765Z,7368
2018-09-01T11:09:09.256Z,7776
2018-09-01T11:10:10.401Z,8328
2018-09-01T11:11:09.829Z,8544
2018-09-01T11:12:09.512Z,8648
2018-09-01T11:13:09.251Z,8676
2018-09-01T11:14:10.047Z,8600
2018-09-01T11:15:09.837Z,8616
2018-09-01T11:16:09.763Z,8676
2018-09-01T11:17:09.772Z,8632
2018-09-01T11:18:09.830Z,8796
2018-09-01T11:19:10.072Z,8580
2018-09-01T11:20:10.410Z,8804
2018-09-01T11:21:10.035Z,8524
2018-09-01T11:22:09.782Z,8692
2018-09-01T11:23:10.062Z,8832
2018-09-01T11:24:09.267Z,8828
2018-09-01T11:25:10.504Z,8956
2018-09-01T11:26:09.284Z,9316
2018-09-01T11:27:09.818Z,9552
2018-09-01T11:28:10.160Z,9432
2018-09-01T11:29:09.795Z,9200
2018-09-01T11:30:09.670Z,8856
2018-09-01T11:31:09.818Z,8168
2018-09-01T11:32:09.817Z,8104
2018-09-01T11:33:09.551Z,8204
2018-09-01T11:34:10.188Z,8240
2018-09-01T11:35:10.270Z,8236
2018-09-01T11:36:10.232Z,8104
2018-09-01T11:37:10.386Z,7844
2018-09-01T11:38:09.817Z,7768
2018-09-01T11:39:09.848Z,7844
2018-09-01T11:40:09.599Z,7928
2018-09-01T11:41:09.625Z,8112
2018-09-01T11:42:09.584Z,8240
2018-09-01T11:43:10.986Z,8248
2018-09-01T11:44:09.332Z,8236
2018-09-01T11:45:10.300Z,8148
2018-09-01T11:46:09.578Z,8196
2018-09-01T11:47:09.842Z,8684
2018-09-01T11:48:10.098Z,9620
2018-09-01T11:49:09.851Z,10084
2018-09-01T11:50:10.015Z,10624
2018-09-01T11:51:09.863Z,10300
2018-09-01T11:52:10.008Z,10536
2018-09-01T11:53:09.386Z,10720
2018-09-01T11:54:10.125Z,10792
2018-09-01T11:55:10.054Z,11204
2018-09-01T11:56:09.861Z,10872
2018-09-01T11:57:10.125Z,10432
2018-09-01T11:58:09.613Z,10068
2018-09-01T11:59:09.875Z,9516
2018-09-01T12:00:09.893Z,9496
2018-09-01T12:01:10.005Z,9576
2018-09-01T12:02:10.093Z,10380
2018-09-01T12:03:10.146Z,9176
2018-09-01T12:04:09.872Z,9244
2018-09-01T12:05:10.193Z,9192
2018-09-01T12:06:09.979Z,9012
2018-09-01T12:07:10.956Z,8624
2018-09-01T12:08:09.891Z,8420
2018-09-01T12:09:10.046Z,8424
2018-09-01T12:10:09.698Z,8560
2018-09-01T12:11:10.167Z,8784
2018-09-01T12:12:09.648Z,8964
2018-09-01T12:13:09.637Z,9004
2018-09-01T12:14:09.961Z,9056
2018-09-01T12:15:09.389Z,9284
2018-09-01T12:16:09.939Z,9468
2018-09-01T12:17:09.910Z,9500
2018-09-01T12:18:09.937Z,9508
2018-09-01T12:19:09.927Z,9560
2018-09-01T12:20:09.847Z,9536
2018-09-01T12:21:09.730Z,9412
2018-09-01T12:22:10.344Z,9140
2018-09-01T12:23:09.947Z,8840
2018-09-01T12:24:09.942Z,8660
2018-09-01T12:25:09.537Z,8628
2018-09-01T12:26:10.214Z,8656
2018-09-01T12:27:09.946Z,8708
2018-09-01T12:28:09.759Z,8712
2018-09-01T12:29:09.697Z,8800
2018-09-01T12:30:09.894Z,9000
2018-09-01T12:31:09.943Z,9252
2018-09-01T12:32:09.963Z,9700
2018-09-01T12:33:09.734Z,10088
2018-09-01T12:34:10.232Z,10424
2018-09-01T12:35:09.508Z,10584
2018-09-01T12:36:10.069Z,10572
2018-09-01T12:37:09.983Z,10576
2018-09-01T12:38:09.941Z,10608
2018-09-01T12:39:09.956Z,10756
2018-09-01T12:40:09.786Z,10788
2018-09-01T12:41:10.228Z,10520
2018-09-01T12:42:10.394Z,10264
2018-09-01T12:43:10.252Z,9996
2018-09-01T12:44:09.976Z,9736
2018-09-01T12:45:09.766Z,9508
2018-09-01T12:46:09.990Z,9336
2018-09-01T12:47:09.981Z,9128
2018-09-01T12:48:10.002Z,9056
2018-09-01T12:49:09.754Z,9244
2018-09-01T12:50:09.832Z,9984
2018-09-01T12:51:09.747Z,10940
2018-09-01T12:52:09.766Z,10536
2018-09-01T12:53:10.605Z,10084
2018-09-01T12:54:10.007Z,10008
2018-09-01T12:55:10.271Z,9968
2018-09-01T12:56:10.002Z,9848
2018-09-01T12:57:09.528Z,9748
2018-09-01T12:58:10.006Z,9484
2018-09-01T12:59:10.000Z,9096
2018-09-01T13:00:09.793Z,8648
2018-09-01T13:01:09.803Z,8224
2018-09-01T13:02:10.042Z,7940
2018-09-01T13:03:10.089Z,7732
2018-09-01T13:04:09.532Z,7692
2018-09-01T13:05:10.398Z,7724
2018-09-01T13:06:10.093Z,7864
2018-09-01T13:07:10.042Z,7984
2018-09-01T13:08:10.407Z,7956
2018-09-01T13:09:09.542Z,7868
2018-09-01T13:10:09.812Z,7848
2018-09-01T13:11:10.316Z,7780
2018-09-01T13:12:10.062Z,7728
2018-09-01T13:13:10.330Z,7860
2018-09-01T13:14:10.073Z,8092
2018-09-01T13:15:10.069Z,8312
2018-09-01T13:16:10.061Z,8452
2018-09-01T13:17:10.063Z,8492
2018-09-01T13:18:10.124Z,8444
2018-09-01T13:19:10.072Z,8396
2018-09-01T13:20:09.854Z,8416
2018-09-01T13:21:10.073Z,8520
2018-09-01T13:22:10.084Z,8556
2018-09-01T13:23:10.374Z,8524
2018-09-01T13:24:10.093Z,8488
2018-09-01T13:25:10.456Z,8368
2018-09-01T13:26:14.066Z,8132
2018-09-01T13:27:10.091Z,7852
2018-09-01T13:28:09.847Z,7604
2018-09-01T13:29:09.584Z,7388
2018-09-01T13:30:10.141Z,7284
2018-09-01T13:31:10.371Z,7348
2018-09-01T13:32:09.856Z,7504
2018-09-01T13:33:10.357Z,7688
2018-09-01T13:34:10.385Z,7896
2018-09-01T13:35:10.175Z,8120
2018-09-01T13:36:10.110Z,8280
2018-09-01T13:37:10.111Z,8312
2018-09-01T13:38:10.397Z,8240
2018-09-01T13:39:10.484Z,8080
2018-09-01T13:40:10.365Z,7948
2018-09-01T13:41:09.609Z,7992
2018-09-01T13:42:10.146Z,8088
2018-09-01T13:43:10.175Z,8128
2018-09-01T13:44:10.197Z,8124
2018-09-01T13:45:09.666Z,8108